createdAt,value
2022-12-29T00:00:33.086Z,20.8
2022-12-29T00:15:32.107Z,20.8
2022-12-29T00:30:32.618Z,20.8
2022-12-29T00:45:32.281Z,20.8
2022-12-29T01:00:32.517Z,20.9
2022-12-29T01:15:32.762Z,20.9
2022-12-29T01:30:32.392Z,20.9
2022-12-29T01:45:32.200Z,20.9
2022-12-29T02:00:32.090Z,21.0
2022-12-29T02:15:32.447Z,21
2022-12-29T02:30:31.762Z,21
2022-12-29T02:45:32.593Z,21
2022-12-29T03:00:31.975Z,21
2022-12-29T03:15:32.912Z,21
2022-12-29T03:30:31.926Z,21.1
2022-12-29T03:45:32.466Z,21.1
2022-12-29T04:00:32.504Z,21.1
2022-12-29T04:15:32.190Z,21.1
2022-12-29T04:30:32.562Z,21.1
2022-12-29T04:45:32.635Z,21.1
2022-12-29T05:00:32.644Z,21.2
2022-12-29T05:15:32.528Z,21.2
2022-12-29T05:30:32.712Z,21.2
2022-12-29T05:45:32.388Z,21.2
2022-12-29T06:00:32.678Z,21.2
2022-12-29T06:15:32.236Z,21.2
2022-12-29T06:30:32.193Z,21.2
2022-12-29T06:45:32.172Z,21.2
2022-12-29T07:00:33.038Z,21.2
2022-12-29T07:15:32.147Z,21.2
2022-12-29T07:30:32.559Z,21.2
2022-12-29T07:45:32.271Z,21.2
2022-12-29T08:00:35.933Z,21.3
2022-12-29T08:15:32.842Z,21.3
2022-12-29T08:30:33.005Z,21.3
2022-12-29T08:45:32.952Z,21.3
2022-12-29T09:00:36.716Z,21.3
2022-12-29T09:15:32.829Z,21.4
2022-12-29T09:30:33.543Z,21.4
2022-12-29T09:45:32.451Z,21.4
2022-12-29T10:00:32.874Z,21.4
2022-12-29T10:15:32.940Z,21.5
2022-12-29T10:30:32.828Z,21.5
2022-12-29T10:45:32.527Z,21.5
2022-12-29T11:00:34.001Z,21.5
2022-12-29T11:15:32.659Z,21.6
2022-12-29T11:30:31.970Z,21.6
2022-12-29T11:45:32.191Z,21.6
2022-12-29T12:00:36.626Z,21.6
2022-12-29T12:15:32.399Z,21.7
2022-12-29T12:30:32.668Z,21.7
2022-12-29T12:45:32.631Z,21.8
2022-12-29T13:00:34.401Z,21.8
2022-12-29T13:15:32.780Z,21.8
2022-12-29T13:30:32.002Z,21.8
2022-12-29T13:45:32.557Z,21.8
2022-12-29T14:00:35.099Z,21.8
2022-12-29T14:15:32.109Z,21.8
2022-12-29T14:30:32.500Z,21.8
2022-12-29T14:45:32.531Z,21.9
2022-12-29T15:00:34.126Z,21.8
2022-12-29T15:15:32.640Z,21.8
2022-12-29T15:30:32.737Z,21.8
2022-12-29T15:45:32.403Z,21.8
2022-12-29T16:00:33.987Z,21.8
2022-12-29T16:15:32.207Z,21.8
2022-12-29T16:30:34.047Z,21.8
2022-12-29T16:45:32.296Z,21.8
2022-12-29T17:00:35.317Z,21.8
2022-12-29T17:15:32.841Z,21.8
2022-12-29T17:30:34.357Z,21.8
2022-12-29T17:45:32.028Z,21.7
2022-12-29T18:00:34.947Z,21.7
2022-12-29T18:15:32.378Z,21.7
2022-12-29T18:30:33.047Z,21.6
2022-12-29T18:45:32.737Z,21.6
2022-12-29T19:00:34.110Z,21.6
2022-12-29T19:15:32.141Z,21.5
2022-12-29T19:30:33.044Z,21.5
2022-12-29T19:45:32.759Z,21.5
2022-12-29T20:00:34.761Z,21.4
2022-12-29T20:15:32.565Z,21.4
2022-12-29T20:30:32.569Z,21.4
2022-12-29T20:45:32.857Z,21.4
2022-12-29T21:00:34.523Z,21.3
2022-12-29T21:15:32.716Z,21.3
2022-12-29T21:30:32.735Z,21.3
2022-12-29T21:45:32.194Z,21.3
2022-12-29T22:00:33.143Z,21.2
2022-12-29T22:15:32.297Z,21.2
2022-12-29T22:30:32.884Z,21.2
2022-12-29T22:45:32.950Z,21.2
2022-12-29T23:00:32.225Z,21.1
2022-12-29T23:15:32.800Z,21.1
2022-12-29T23:30:32.055Z,21.1
2022-12-29T23:45:32.799Z,21.1
